sensor_id;sensor_type;location;lat;lon;timestamp;P1;durP1;ratioP1;P2;durP2;ratioP2
80647;SDS011;70012;0.000;0.000;2023-08-06T00:00:58;2.53;;;1.75;;
80647;SDS011;70012;0.000;0.000;2023-08-06T00:03:26;2.30;;;1.77;;
80647;SDS011;70012;0.000;0.000;2023-08-06T00:05:53;2.33;;;1.67;;
80647;SDS011;70012;0.000;0.000;2023-08-06T00:08:20;3.50;;;2.00;;
80647;SDS011;70012;0.000;0.000;2023-08-06T00:10:47;7.65;;;1.92;;
80647;SDS011;70012;0.000;0.000;2023-08-06T00:13:14;3.13;;;1.90;;
80647;SDS011;70012;0.000;0.000;2023-08-06T00:15:41;3.00;;;2.10;;
80647;SDS011;70012;0.000;0.000;2023-08-06T00:18:08;3.40;;;1.80;;
80647;SDS011;70012;0.000;0.000;2023-08-06T00:20:35;3.40;;;2.00;;
80647;SDS011;70012;0.000;0.000;2023-08-06T00:23:05;3.78;;;2.15;;
80647;SDS011;70012;0.000;0.000;2023-08-06T00:25:32;2.28;;;1.73;;
80647;SDS011;70012;0.000;0.000;2023-08-06T00:27:58;6.05;;;2.83;;
80647;SDS011;70012;0.000;0.000;2023-08-06T00:30:25;3.80;;;2.00;;
80647;SDS011;70012;0.000;0.000;2023-08-06T00:32:52;4.25;;;1.80;;
80647;SDS011;70012;0.000;0.000;2023-08-06T00:35:19;2.95;;;2.08;;
80647;SDS011;70012;0.000;0.000;2023-08-06T00:37:46;2.92;;;2.13;;
80647;SDS011;70012;0.000;0.000;2023-08-06T00:40:14;2.88;;;1.80;;
80647;SDS011;70012;0.000;0.000;2023-08-06T00:42:40;4.53;;;2.00;;
80647;SDS011;70012;0.000;0.000;2023-08-06T00:45:07;2.83;;;2.03;;
80647;SDS011;70012;0.000;0.000;2023-08-06T00:47:34;4.63;;;1.95;;
80647;SDS011;70012;0.000;0.000;2023-08-06T00:50:01;3.60;;;2.03;;
80647;SDS011;70012;0.000;0.000;2023-08-06T00:52:28;3.05;;;1.95;;
80647;SDS011;70012;0.000;0.000;2023-08-06T00:54:54;2.90;;;1.90;;
80647;SDS011;70012;0.000;0.000;2023-08-06T00:57:22;2.13;;;1.50;;
80647;SDS011;70012;0.000;0.000;2023-08-06T00:59:52;6.05;;;2.20;;
80647;SDS011;70012;0.000;0.000;2023-08-06T01:02:20;3.22;;;1.90;;
80647;SDS011;70012;0.000;0.000;2023-08-06T01:04:47;4.45;;;1.90;;
80647;SDS011;70012;0.000;0.000;2023-08-06T01:07:35;2.20;;;1.60;;
80647;SDS011;70012;0.000;0.000;2023-08-06T01:13:33;3.00;;;1.90;;
80647;SDS011;70012;0.000;0.000;2023-08-06T01:16:17;2.75;;;1.63;;
80647;SDS011;70012;0.000;0.000;2023-08-06T01:18:45;2.53;;;1.70;;
80647;SDS011;70012;0.000;0.000;2023-08-06T01:21:16;2.63;;;1.70;;
80647;SDS011;70012;0.000;0.000;2023-08-06T01:23:43;2.72;;;1.60;;
80647;SDS011;70012;0.000;0.000;2023-08-06T01:26:15;2.60;;;1.70;;
80647;SDS011;70012;0.000;0.000;2023-08-06T01:31:27;3.40;;;1.85;;
80647;SDS011;70012;0.000;0.000;2023-08-06T01:33:58;3.45;;;1.80;;
80647;SDS011;70012;0.000;0.000;2023-08-06T01:36:27;2.50;;;1.60;;
80647;SDS011;70012;0.000;0.000;2023-08-06T01:38:54;2.70;;;1.70;;
80647;SDS011;70012;0.000;0.000;2023-08-06T01:41:21;4.82;;;2.00;;
80647;SDS011;70012;0.000;0.000;2023-08-06T01:43:48;3.00;;;1.75;;
80647;SDS011;70012;0.000;0.000;2023-08-06T01:46:15;2.45;;;1.58;;
80647;SDS011;70012;0.000;0.000;2023-08-06T01:48:42;2.85;;;1.80;;
80647;SDS011;70012;0.000;0.000;2023-08-06T01:51:09;2.80;;;1.73;;
80647;SDS011;70012;0.000;0.000;2023-08-06T01:53:37;3.75;;;1.60;;
80647;SDS011;70012;0.000;0.000;2023-08-06T01:56:04;2.42;;;1.50;;
80647;SDS011;70012;0.000;0.000;2023-08-06T01:58:30;3.38;;;1.90;;
80647;SDS011;70012;0.000;0.000;2023-08-06T02:00:57;3.40;;;2.03;;
80647;SDS011;70012;0.000;0.000;2023-08-06T02:03:24;1.92;;;1.45;;
80647;SDS011;70012;0.000;0.000;2023-08-06T02:05:51;3.67;;;2.00;;
80647;SDS011;70012;0.000;0.000;2023-08-06T02:08:21;2.35;;;1.60;;
80647;SDS011;70012;0.000;0.000;2023-08-06T02:10:48;5.10;;;1.70;;
80647;SDS011;70012;0.000;0.000;2023-08-06T02:13:15;3.42;;;1.73;;
80647;SDS011;70012;0.000;0.000;2023-08-06T02:15:43;3.53;;;1.67;;
80647;SDS011;70012;0.000;0.000;2023-08-06T02:18:10;3.38;;;1.90;;
80647;SDS011;70012;0.000;0.000;2023-08-06T02:20:37;4.00;;;1.80;;
80647;SDS011;70012;0.000;0.000;2023-08-06T02:23:06;2.45;;;1.60;;
80647;SDS011;70012;0.000;0.000;2023-08-06T02:25:33;2.70;;;1.50;;
80647;SDS011;70012;0.000;0.000;2023-08-06T02:28:00;5.20;;;1.80;;
80647;SDS011;70012;0.000;0.000;2023-08-06T02:30:27;4.00;;;1.90;;
80647;SDS011;70012;0.000;0.000;2023-08-06T02:32:53;2.40;;;1.88;;
80647;SDS011;70012;0.000;0.000;2023-08-06T02:35:21;4.75;;;1.67;;
80647;SDS011;70012;0.000;0.000;2023-08-06T02:37:47;3.80;;;1.90;;
80647;SDS011;70012;0.000;0.000;2023-08-06T02:40:14;3.53;;;1.63;;
80647;SDS011;70012;0.000;0.000;2023-08-06T02:42:41;3.25;;;1.77;;
80647;SDS011;70012;0.000;0.000;2023-08-06T02:45:08;3.00;;;1.80;;
80647;SDS011;70012;0.000;0.000;2023-08-06T02:47:35;3.28;;;2.00;;
80647;SDS011;70012;0.000;0.000;2023-08-06T02:50:02;2.25;;;1.70;;
80647;SDS011;70012;0.000;0.000;2023-08-06T02:52:29;2.97;;;1.70;;
80647;SDS011;70012;0.000;0.000;2023-08-06T02:54:55;5.32;;;1.75;;
80647;SDS011;70012;0.000;0.000;2023-08-06T02:57:22;4.70;;;1.90;;
80647;SDS011;70012;0.000;0.000;2023-08-06T02:59:50;3.25;;;1.90;;
80647;SDS011;70012;0.000;0.000;2023-08-06T03:02:17;3.47;;;1.80;;
80647;SDS011;70012;0.000;0.000;2023-08-06T03:04:44;4.82;;;1.80;;
80647;SDS011;70012;0.000;0.000;2023-08-06T03:07:11;2.78;;;1.90;;
80647;SDS011;70012;0.000;0.000;2023-08-06T03:09:38;3.78;;;1.80;;
80647;SDS011;70012;0.000;0.000;2023-08-06T03:12:05;3.10;;;1.50;;
80647;SDS011;70012;0.000;0.000;2023-08-06T03:14:32;5.35;;;1.75;;
80647;SDS011;70012;0.000;0.000;2023-08-06T03:16:59;5.43;;;2.08;;
80647;SDS011;70012;0.000;0.000;2023-08-06T03:19:26;3.20;;;2.00;;
80647;SDS011;70012;0.000;0.000;2023-08-06T03:21:53;4.93;;;2.00;;
80647;SDS011;70012;0.000;0.000;2023-08-06T03:24:21;3.63;;;1.92;;
80647;SDS011;70012;0.000;0.000;2023-08-06T03:26:48;2.55;;;1.80;;
80647;SDS011;70012;0.000;0.000;2023-08-06T03:29:15;5.10;;;2.15;;
80647;SDS011;70012;0.000;0.000;2023-08-06T03:31:42;2.40;;;1.80;;
80647;SDS011;70012;0.000;0.000;2023-08-06T03:34:09;3.90;;;1.80;;
80647;SDS011;70012;0.000;0.000;2023-08-06T03:36:36;2.80;;;1.98;;
80647;SDS011;70012;0.000;0.000;2023-08-06T03:39:04;3.65;;;1.70;;
80647;SDS011;70012;0.000;0.000;2023-08-06T03:41:31;7.05;;;1.90;;
80647;SDS011;70012;0.000;0.000;2023-08-06T03:43:58;4.03;;;1.80;;
80647;SDS011;70012;0.000;0.000;2023-08-06T03:46:24;3.00;;;1.63;;
80647;SDS011;70012;0.000;0.000;2023-08-06T03:48:52;3.40;;;2.10;;
80647;SDS011;70012;0.000;0.000;2023-08-06T03:51:21;3.13;;;1.90;;
80647;SDS011;70012;0.000;0.000;2023-08-06T03:53:48;4.45;;;2.20;;
80647;SDS011;70012;0.000;0.000;2023-08-06T03:56:15;4.38;;;2.20;;
80647;SDS011;70012;0.000;0.000;2023-08-06T03:58:42;3.63;;;2.00;;
80647;SDS011;70012;0.000;0.000;2023-08-06T04:01:11;2.90;;;1.85;;
80647;SDS011;70012;0.000;0.000;2023-08-06T04:03:38;3.63;;;1.90;;
80647;SDS011;70012;0.000;0.000;2023-08-06T04:06:05;2.70;;;1.85;;
80647;SDS011;70012;0.000;0.000;2023-08-06T04:08:33;3.67;;;1.88;;
80647;SDS011;70012;0.000;0.000;2023-08-06T04:11:00;3.03;;;1.80;;
80647;SDS011;70012;0.000;0.000;2023-08-06T04:15:53;3.50;;;1.77;;
80647;SDS011;70012;0.000;0.000;2023-08-06T04:18:20;4.53;;;2.13;;
80647;SDS011;70012;0.000;0.000;2023-08-06T04:20:47;4.22;;;2.40;;
80647;SDS011;70012;0.000;0.000;2023-08-06T04:23:16;3.13;;;2.17;;
80647;SDS011;70012;0.000;0.000;2023-08-06T04:25:43;3.90;;;2.10;;
80647;SDS011;70012;0.000;0.000;2023-08-06T04:28:10;3.88;;;1.85;;
80647;SDS011;70012;0.000;0.000;2023-08-06T04:30:40;3.33;;;2.35;;
80647;SDS011;70012;0.000;0.000;2023-08-06T04:33:07;4.47;;;2.10;;
80647;SDS011;70012;0.000;0.000;2023-08-06T04:35:33;2.95;;;1.92;;
80647;SDS011;70012;0.000;0.000;2023-08-06T04:38:00;4.63;;;1.90;;
80647;SDS011;70012;0.000;0.000;2023-08-06T04:40:27;3.22;;;1.95;;
80647;SDS011;70012;0.000;0.000;2023-08-06T04:42:53;3.03;;;1.88;;
80647;SDS011;70012;0.000;0.000;2023-08-06T04:45:20;3.95;;;1.90;;
80647;SDS011;70012;0.000;0.000;2023-08-06T04:47:47;3.55;;;1.70;;
80647;SDS011;70012;0.000;0.000;2023-08-06T04:50:14;5.13;;;1.90;;
80647;SDS011;70012;0.000;0.000;2023-08-06T04:52:40;3.35;;;2.20;;
80647;SDS011;70012;0.000;0.000;2023-08-06T04:55:07;3.78;;;1.92;;
80647;SDS011;70012;0.000;0.000;2023-08-06T04:57:34;5.32;;;1.98;;
80647;SDS011;70012;0.000;0.000;2023-08-06T05:00:01;3.97;;;1.60;;
80647;SDS011;70012;0.000;0.000;2023-08-06T05:02:29;3.22;;;1.90;;
80647;SDS011;70012;0.000;0.000;2023-08-06T05:04:56;3.83;;;1.90;;
80647;SDS011;70012;0.000;0.000;2023-08-06T05:07:22;5.97;;;2.05;;
80647;SDS011;70012;0.000;0.000;2023-08-06T05:09:49;6.63;;;1.90;;
80647;SDS011;70012;0.000;0.000;2023-08-06T05:12:16;2.60;;;1.50;;
80647;SDS011;70012;0.000;0.000;2023-08-06T05:14:43;5.57;;;1.65;;
80647;SDS011;70012;0.000;0.000;2023-08-06T05:17:10;3.25;;;1.77;;
80647;SDS011;70012;0.000;0.000;2023-08-06T05:19:36;2.60;;;1.45;;
80647;SDS011;70012;0.000;0.000;2023-08-06T05:22:03;3.55;;;1.70;;
80647;SDS011;70012;0.000;0.000;2023-08-06T05:24:30;3.72;;;1.95;;
80647;SDS011;70012;0.000;0.000;2023-08-06T05:26:57;2.55;;;1.45;;
80647;SDS011;70012;0.000;0.000;2023-08-06T05:29:24;4.03;;;1.70;;
80647;SDS011;70012;0.000;0.000;2023-08-06T05:31:50;3.25;;;1.38;;
80647;SDS011;70012;0.000;0.000;2023-08-06T05:34:18;2.53;;;1.60;;
80647;SDS011;70012;0.000;0.000;2023-08-06T05:41:38;2.22;;;1.52;;
80647;SDS011;70012;0.000;0.000;2023-08-06T05:44:05;2.10;;;1.35;;
80647;SDS011;70012;0.000;0.000;2023-08-06T05:46:32;2.72;;;1.60;;
80647;SDS011;70012;0.000;0.000;2023-08-06T05:48:58;3.95;;;1.58;;
80647;SDS011;70012;0.000;0.000;2023-08-06T05:51:26;3.05;;;1.30;;
80647;SDS011;70012;0.000;0.000;2023-08-06T05:53:53;2.10;;;1.33;;
80647;SDS011;70012;0.000;0.000;2023-08-06T05:56:20;2.35;;;1.38;;
80647;SDS011;70012;0.000;0.000;2023-08-06T05:58:47;2.38;;;1.30;;
80647;SDS011;70012;0.000;0.000;2023-08-06T06:01:14;3.90;;;1.30;;
80647;SDS011;70012;0.000;0.000;2023-08-06T06:03:40;2.22;;;1.60;;
80647;SDS011;70012;0.000;0.000;2023-08-06T06:06:07;2.83;;;1.33;;
80647;SDS011;70012;0.000;0.000;2023-08-06T06:08:34;1.77;;;1.25;;
80647;SDS011;70012;0.000;0.000;2023-08-06T06:11:01;2.30;;;1.20;;
80647;SDS011;70012;0.000;0.000;2023-08-06T06:13:27;2.58;;;1.80;;
80647;SDS011;70012;0.000;0.000;2023-08-06T06:15:54;3.42;;;1.92;;
80647;SDS011;70012;0.000;0.000;2023-08-06T06:18:22;3.97;;;1.80;;
80647;SDS011;70012;0.000;0.000;2023-08-06T06:20:49;4.05;;;1.88;;
80647;SDS011;70012;0.000;0.000;2023-08-06T06:23:16;2.65;;;2.00;;
80647;SDS011;70012;0.000;0.000;2023-08-06T06:25:43;3.97;;;1.90;;
80647;SDS011;70012;0.000;0.000;2023-08-06T06:28:13;3.00;;;1.50;;
80647;SDS011;70012;0.000;0.000;2023-08-06T06:30:41;1.70;;;1.10;;
80647;SDS011;70012;0.000;0.000;2023-08-06T06:33:08;2.95;;;1.30;;
80647;SDS011;70012;0.000;0.000;2023-08-06T06:35:35;2.20;;;1.40;;
80647;SDS011;70012;0.000;0.000;2023-08-06T06:38:01;3.63;;;1.25;;
80647;SDS011;70012;0.000;0.000;2023-08-06T06:40:29;1.38;;;1.00;;
80647;SDS011;70012;0.000;0.000;2023-08-06T06:42:56;1.90;;;1.30;;
80647;SDS011;70012;0.000;0.000;2023-08-06T06:45:23;2.20;;;1.20;;
80647;SDS011;70012;0.000;0.000;2023-08-06T06:47:50;1.25;;;1.15;;
80647;SDS011;70012;0.000;0.000;2023-08-06T06:50:17;2.40;;;1.08;;
80647;SDS011;70012;0.000;0.000;2023-08-06T06:52:43;1.33;;;1.00;;
80647;SDS011;70012;0.000;0.000;2023-08-06T06:55:10;1.73;;;1.30;;
80647;SDS011;70012;0.000;0.000;2023-08-06T06:57:37;1.83;;;1.40;;
80647;SDS011;70012;0.000;0.000;2023-08-06T07:00:04;1.67;;;1.40;;
80647;SDS011;70012;0.000;0.000;2023-08-06T07:02:32;1.42;;;1.33;;
80647;SDS011;70012;0.000;0.000;2023-08-06T07:05:00;2.15;;;1.70;;
80647;SDS011;70012;0.000;0.000;2023-08-06T07:07:27;1.55;;;1.27;;
80647;SDS011;70012;0.000;0.000;2023-08-06T07:09:54;1.77;;;1.30;;
80647;SDS011;70012;0.000;0.000;2023-08-06T07:12:21;2.03;;;1.40;;
80647;SDS011;70012;0.000;0.000;2023-08-06T07:14:48;2.30;;;1.60;;
80647;SDS011;70012;0.000;0.000;2023-08-06T07:17:15;4.50;;;1.50;;
80647;SDS011;70012;0.000;0.000;2023-08-06T07:19:41;2.90;;;1.55;;
80647;SDS011;70012;0.000;0.000;2023-08-06T07:22:08;2.95;;;1.48;;
80647;SDS011;70012;0.000;0.000;2023-08-06T07:24:35;1.75;;;1.42;;
80647;SDS011;70012;0.000;0.000;2023-08-06T07:27:02;3.00;;;1.70;;
80647;SDS011;70012;0.000;0.000;2023-08-06T07:29:29;2.72;;;1.60;;
80647;SDS011;70012;0.000;0.000;2023-08-06T07:31:56;3.00;;;1.75;;
80647;SDS011;70012;0.000;0.000;2023-08-06T07:34:22;4.55;;;1.70;;
80647;SDS011;70012;0.000;0.000;2023-08-06T07:36:49;3.85;;;1.80;;
80647;SDS011;70012;0.000;0.000;2023-08-06T07:39:16;4.53;;;1.55;;
80647;SDS011;70012;0.000;0.000;2023-08-06T07:41:43;3.97;;;2.00;;
80647;SDS011;70012;0.000;0.000;2023-08-06T07:44:12;2.72;;;1.70;;
80647;SDS011;70012;0.000;0.000;2023-08-06T07:46:38;3.55;;;2.00;;
80647;SDS011;70012;0.000;0.000;2023-08-06T07:49:06;2.75;;;1.75;;
80647;SDS011;70012;0.000;0.000;2023-08-06T07:51:32;2.65;;;1.75;;
80647;SDS011;70012;0.000;0.000;2023-08-06T07:54:02;3.10;;;1.70;;
80647;SDS011;70012;0.000;0.000;2023-08-06T07:56:29;3.25;;;2.13;;
80647;SDS011;70012;0.000;0.000;2023-08-06T07:58:56;1.88;;;1.50;;
80647;SDS011;70012;0.000;0.000;2023-08-06T08:01:23;1.95;;;1.60;;
80647;SDS011;70012;0.000;0.000;2023-08-06T08:03:49;2.28;;;1.90;;
80647;SDS011;70012;0.000;0.000;2023-08-06T08:06:16;4.75;;;2.00;;
80647;SDS011;70012;0.000;0.000;2023-08-06T08:08:43;3.40;;;2.08;;
80647;SDS011;70012;0.000;0.000;2023-08-06T08:11:10;2.65;;;1.77;;
80647;SDS011;70012;0.000;0.000;2023-08-06T08:13:37;3.72;;;2.08;;
80647;SDS011;70012;0.000;0.000;2023-08-06T08:16:04;3.28;;;1.92;;
80647;SDS011;70012;0.000;0.000;2023-08-06T08:18:30;2.97;;;1.90;;
80647;SDS011;70012;0.000;0.000;2023-08-06T08:20:58;3.78;;;1.83;;
80647;SDS011;70012;0.000;0.000;2023-08-06T08:23:25;2.58;;;1.98;;
80647;SDS011;70012;0.000;0.000;2023-08-06T08:25:52;6.50;;;2.10;;
80647;SDS011;70012;0.000;0.000;2023-08-06T08:28:19;2.70;;;1.95;;
80647;SDS011;70012;0.000;0.000;2023-08-06T08:30:46;2.80;;;2.05;;
80647;SDS011;70012;0.000;0.000;2023-08-06T08:33:13;2.20;;;1.88;;
80647;SDS011;70012;0.000;0.000;2023-08-06T08:35:39;3.30;;;1.80;;
80647;SDS011;70012;0.000;0.000;2023-08-06T08:38:07;2.95;;;1.77;;
80647;SDS011;70012;0.000;0.000;2023-08-06T08:40:33;1.77;;;1.58;;
80647;SDS011;70012;0.000;0.000;2023-08-06T08:43:05;1.80;;;1.42;;
80647;SDS011;70012;0.000;0.000;2023-08-06T08:45:33;1.90;;;1.60;;
80647;SDS011;70012;0.000;0.000;2023-08-06T08:48:05;3.83;;;1.70;;
80647;SDS011;70012;0.000;0.000;2023-08-06T08:50:33;4.30;;;1.80;;
80647;SDS011;70012;0.000;0.000;2023-08-06T08:53:00;2.20;;;1.70;;
80647;SDS011;70012;0.000;0.000;2023-08-06T08:55:27;2.28;;;1.67;;
80647;SDS011;70012;0.000;0.000;2023-08-06T08:57:54;1.67;;;1.40;;
80647;SDS011;70012;0.000;0.000;2023-08-06T09:00:21;2.53;;;1.45;;
80647;SDS011;70012;0.000;0.000;2023-08-06T09:02:47;2.47;;;1.58;;
80647;SDS011;70012;0.000;0.000;2023-08-06T09:05:15;2.28;;;1.70;;
80647;SDS011;70012;0.000;0.000;2023-08-06T09:07:42;2.17;;;1.98;;
80647;SDS011;70012;0.000;0.000;2023-08-06T09:10:16;1.90;;;1.30;;
80647;SDS011;70012;0.000;0.000;2023-08-06T09:12:46;0.90;;;0.90;;
80647;SDS011;70012;0.000;0.000;2023-08-06T09:15:13;0.80;;;0.80;;
80647;SDS011;70012;0.000;0.000;2023-08-06T09:17:40;0.80;;;0.80;;
80647;SDS011;70012;0.000;0.000;2023-08-06T09:20:10;0.80;;;0.80;;
80647;SDS011;70012;0.000;0.000;2023-08-06T09:22:38;1.00;;;0.90;;
80647;SDS011;70012;0.000;0.000;2023-08-06T09:25:06;0.95;;;0.85;;
80647;SDS011;70012;0.000;0.000;2023-08-06T09:27:36;0.73;;;0.73;;
80647;SDS011;70012;0.000;0.000;2023-08-06T09:30:05;2.38;;;0.90;;
80647;SDS011;70012;0.000;0.000;2023-08-06T09:32:46;3.65;;;0.65;;
80647;SDS011;70012;0.000;0.000;2023-08-06T09:35:21;0.60;;;0.40;;
80647;SDS011;70012;0.000;0.000;2023-08-06T09:37:48;0.60;;;0.40;;
80647;SDS011;70012;0.000;0.000;2023-08-06T09:40:31;0.68;;;0.68;;
80647;SDS011;70012;0.000;0.000;2023-08-06T09:42:59;2.92;;;0.90;;
80647;SDS011;70012;0.000;0.000;2023-08-06T09:45:34;0.63;;;0.63;;
80647;SDS011;70012;0.000;0.000;2023-08-06T09:48:02;0.55;;;0.55;;
80647;SDS011;70012;0.000;0.000;2023-08-06T09:50:31;1.02;;;0.80;;
80647;SDS011;70012;0.000;0.000;2023-08-06T09:52:59;1.42;;;0.88;;
80647;SDS011;70012;0.000;0.000;2023-08-06T09:55:27;1.10;;;1.00;;
80647;SDS011;70012;0.000;0.000;2023-08-06T09:57:54;1.23;;;1.02;;
80647;SDS011;70012;0.000;0.000;2023-08-06T10:00:23;1.63;;;1.20;;
80647;SDS011;70012;0.000;0.000;2023-08-06T10:02:50;1.42;;;0.90;;
80647;SDS011;70012;0.000;0.000;2023-08-06T10:05:21;1.60;;;0.90;;
80647;SDS011;70012;0.000;0.000;2023-08-06T10:07:49;1.48;;;0.90;;
80647;SDS011;70012;0.000;0.000;2023-08-06T10:10:19;0.98;;;0.80;;
80647;SDS011;70012;0.000;0.000;2023-08-06T10:12:48;2.00;;;1.02;;
80647;SDS011;70012;0.000;0.000;2023-08-06T10:15:19;1.73;;;0.90;;
80647;SDS011;70012;0.000;0.000;2023-08-06T10:17:51;1.90;;;1.13;;
80647;SDS011;70012;0.000;0.000;2023-08-06T10:20:21;3.03;;;1.40;;
80647;SDS011;70012;0.000;0.000;2023-08-06T10:23:03;3.95;;;1.50;;
80647;SDS011;70012;0.000;0.000;2023-08-06T10:25:34;4.50;;;1.70;;
80647;SDS011;70012;0.000;0.000;2023-08-06T10:28:07;2.72;;;1.52;;
80647;SDS011;70012;0.000;0.000;2023-08-06T10:30:45;4.63;;;1.80;;
80647;SDS011;70012;0.000;0.000;2023-08-06T10:33:14;3.50;;;1.70;;
80647;SDS011;70012;0.000;0.000;2023-08-06T10:35:43;5.20;;;1.63;;
80647;SDS011;70012;0.000;0.000;2023-08-06T10:46:04;4.22;;;1.90;;
80647;SDS011;70012;0.000;0.000;2023-08-06T10:53:30;5.97;;;1.90;;
80647;SDS011;70012;0.000;0.000;2023-08-06T10:56:00;5.97;;;1.92;;
80647;SDS011;70012;0.000;0.000;2023-08-06T10:58:34;3.75;;;2.00;;
80647;SDS011;70012;0.000;0.000;2023-08-06T11:01:01;2.38;;;1.45;;
80647;SDS011;70012;0.000;0.000;2023-08-06T11:03:28;6.60;;;1.80;;
80647;SDS011;70012;0.000;0.000;2023-08-06T11:05:55;6.28;;;1.77;;
80647;SDS011;70012;0.000;0.000;2023-08-06T11:08:24;4.22;;;1.52;;
80647;SDS011;70012;0.000;0.000;2023-08-06T11:10:55;4.90;;;1.42;;
80647;SDS011;70012;0.000;0.000;2023-08-06T11:13:29;2.45;;;1.55;;
80647;SDS011;70012;0.000;0.000;2023-08-06T11:15:56;5.00;;;1.50;;
80647;SDS011;70012;0.000;0.000;2023-08-06T11:18:24;5.78;;;1.35;;
80647;SDS011;70012;0.000;0.000;2023-08-06T11:20:51;5.07;;;1.77;;
80647;SDS011;70012;0.000;0.000;2023-08-06T11:23:18;3.65;;;1.70;;
80647;SDS011;70012;0.000;0.000;2023-08-06T11:28:12;2.92;;;1.58;;
80647;SDS011;70012;0.000;0.000;2023-08-06T11:30:39;4.68;;;1.88;;
80647;SDS011;70012;0.000;0.000;2023-08-06T11:33:06;4.15;;;1.70;;
80647;SDS011;70012;0.000;0.000;2023-08-06T11:35:34;3.15;;;1.60;;
80647;SDS011;70012;0.000;0.000;2023-08-06T11:38:02;5.05;;;1.85;;
80647;SDS011;70012;0.000;0.000;2023-08-06T11:40:29;5.22;;;1.80;;
80647;SDS011;70012;0.000;0.000;2023-08-06T11:42:56;6.63;;;1.85;;
80647;SDS011;70012;0.000;0.000;2023-08-06T11:45:24;4.93;;;1.90;;
80647;SDS011;70012;0.000;0.000;2023-08-06T11:47:51;4.55;;;1.80;;
80647;SDS011;70012;0.000;0.000;2023-08-06T11:50:26;3.38;;;1.88;;
80647;SDS011;70012;0.000;0.000;2023-08-06T11:52:58;5.20;;;2.50;;
80647;SDS011;70012;0.000;0.000;2023-08-06T11:55:27;5.57;;;2.10;;
80647;SDS011;70012;0.000;0.000;2023-08-06T11:57:55;4.90;;;2.47;;
80647;SDS011;70012;0.000;0.000;2023-08-06T12:00:24;4.03;;;1.80;;
80647;SDS011;70012;0.000;0.000;2023-08-06T12:02:51;6.00;;;2.25;;
80647;SDS011;70012;0.000;0.000;2023-08-06T12:05:19;5.80;;;2.10;;
80647;SDS011;70012;0.000;0.000;2023-08-06T12:07:47;2.42;;;2.03;;
80647;SDS011;70012;0.000;0.000;2023-08-06T12:10:15;3.97;;;1.92;;
80647;SDS011;70012;0.000;0.000;2023-08-06T12:13:02;2.80;;;1.80;;
80647;SDS011;70012;0.000;0.000;2023-08-06T12:15:29;4.05;;;1.77;;
80647;SDS011;70012;0.000;0.000;2023-08-06T12:17:58;2.30;;;1.80;;
80647;SDS011;70012;0.000;0.000;2023-08-06T12:20:25;4.43;;;2.08;;
80647;SDS011;70012;0.000;0.000;2023-08-06T12:22:53;4.13;;;1.90;;
80647;SDS011;70012;0.000;0.000;2023-08-06T12:25:19;3.42;;;1.60;;
80647;SDS011;70012;0.000;0.000;2023-08-06T12:27:46;3.05;;;1.67;;
80647;SDS011;70012;0.000;0.000;2023-08-06T12:30:16;3.28;;;2.00;;
80647;SDS011;70012;0.000;0.000;2023-08-06T12:32:43;2.90;;;1.77;;
80647;SDS011;70012;0.000;0.000;2023-08-06T12:35:09;5.13;;;1.70;;
80647;SDS011;70012;0.000;0.000;2023-08-06T12:37:36;2.92;;;1.50;;
80647;SDS011;70012;0.000;0.000;2023-08-06T12:40:05;3.03;;;1.52;;
80647;SDS011;70012;0.000;0.000;2023-08-06T12:42:52;3.67;;;1.50;;
80647;SDS011;70012;0.000;0.000;2023-08-06T12:45:20;2.65;;;1.50;;
80647;SDS011;70012;0.000;0.000;2023-08-06T12:47:49;4.53;;;1.30;;
80647;SDS011;70012;0.000;0.000;2023-08-06T12:50:17;2.65;;;1.77;;
80647;SDS011;70012;0.000;0.000;2023-08-06T12:52:44;4.15;;;1.70;;
80647;SDS011;70012;0.000;0.000;2023-08-06T12:55:11;3.00;;;1.40;;
80647;SDS011;70012;0.000;0.000;2023-08-06T12:57:38;1.73;;;1.27;;
80647;SDS011;70012;0.000;0.000;2023-08-06T13:00:23;2.85;;;1.30;;
80647;SDS011;70012;0.000;0.000;2023-08-06T13:02:50;1.67;;;1.25;;
80647;SDS011;70012;0.000;0.000;2023-08-06T13:05:18;3.00;;;1.20;;
80647;SDS011;70012;0.000;0.000;2023-08-06T13:07:46;1.67;;;1.23;;
80647;SDS011;70012;0.000;0.000;2023-08-06T13:10:13;1.95;;;1.13;;
80647;SDS011;70012;0.000;0.000;2023-08-06T13:12:40;1.50;;;1.20;;
80647;SDS011;70012;0.000;0.000;2023-08-06T13:15:07;1.60;;;1.42;;
80647;SDS011;70012;0.000;0.000;2023-08-06T13:17:34;1.30;;;1.20;;
80647;SDS011;70012;0.000;0.000;2023-08-06T13:20:00;1.67;;;1.15;;
80647;SDS011;70012;0.000;0.000;2023-08-06T13:22:27;1.30;;;1.20;;
80647;SDS011;70012;0.000;0.000;2023-08-06T13:24:54;3.00;;;1.30;;
80647;SDS011;70012;0.000;0.000;2023-08-06T13:27:21;1.75;;;1.27;;
80647;SDS011;70012;0.000;0.000;2023-08-06T13:29:48;4.25;;;1.90;;
80647;SDS011;70012;0.000;0.000;2023-08-06T13:32:15;3.35;;;2.05;;
80647;SDS011;70012;0.000;0.000;2023-08-06T13:34:42;3.47;;;1.73;;
80647;SDS011;70012;0.000;0.000;2023-08-06T13:37:09;3.15;;;1.80;;
80647;SDS011;70012;0.000;0.000;2023-08-06T13:39:36;1.95;;;1.58;;
80647;SDS011;70012;0.000;0.000;2023-08-06T13:42:02;5.32;;;2.10;;
80647;SDS011;70012;0.000;0.000;2023-08-06T13:44:29;3.03;;;2.13;;
80647;SDS011;70012;0.000;0.000;2023-08-06T13:46:56;3.20;;;1.90;;
80647;SDS011;70012;0.000;0.000;2023-08-06T13:49:23;4.45;;;1.90;;
80647;SDS011;70012;0.000;0.000;2023-08-06T13:51:50;3.90;;;1.60;;
80647;SDS011;70012;0.000;0.000;2023-08-06T13:54:17;4.43;;;1.65;;
80647;SDS011;70012;0.000;0.000;2023-08-06T14:01:40;2.38;;;1.50;;
80647;SDS011;70012;0.000;0.000;2023-08-06T14:04:16;5.60;;;1.75;;
80647;SDS011;70012;0.000;0.000;2023-08-06T14:06:43;2.08;;;1.50;;
80647;SDS011;70012;0.000;0.000;2023-08-06T14:09:10;4.05;;;1.60;;
80647;SDS011;70012;0.000;0.000;2023-08-06T14:11:40;4.03;;;1.30;;
80647;SDS011;70012;0.000;0.000;2023-08-06T14:14:07;11.63;;;2.13;;
80647;SDS011;70012;0.000;0.000;2023-08-06T14:16:34;2.80;;;1.50;;
80647;SDS011;70012;0.000;0.000;2023-08-06T14:19:01;3.33;;;1.50;;
80647;SDS011;70012;0.000;0.000;2023-08-06T14:21:28;4.95;;;1.30;;
80647;SDS011;70012;0.000;0.000;2023-08-06T14:23:54;2.15;;;1.30;;
80647;SDS011;70012;0.000;0.000;2023-08-06T14:26:21;3.25;;;1.50;;
80647;SDS011;70012;0.000;0.000;2023-08-06T14:28:50;3.80;;;1.30;;
80647;SDS011;70012;0.000;0.000;2023-08-06T14:31:20;3.05;;;1.35;;
80647;SDS011;70012;0.000;0.000;2023-08-06T14:33:47;3.72;;;1.40;;
80647;SDS011;70012;0.000;0.000;2023-08-06T14:36:14;2.30;;;1.30;;
80647;SDS011;70012;0.000;0.000;2023-08-06T14:38:42;3.33;;;1.40;;
80647;SDS011;70012;0.000;0.000;2023-08-06T14:41:25;1.90;;;1.20;;
80647;SDS011;70012;0.000;0.000;2023-08-06T14:43:52;2.63;;;1.38;;
80647;SDS011;70012;0.000;0.000;2023-08-06T14:46:19;2.55;;;1.20;;
80647;SDS011;70012;0.000;0.000;2023-08-06T14:48:46;2.17;;;1.50;;
80647;SDS011;70012;0.000;0.000;2023-08-06T14:51:13;3.88;;;1.27;;
80647;SDS011;70012;0.000;0.000;2023-08-06T14:53:40;3.60;;;1.48;;
80647;SDS011;70012;0.000;0.000;2023-08-06T14:56:07;1.08;;;0.90;;
80647;SDS011;70012;0.000;0.000;2023-08-06T14:58:39;1.38;;;0.90;;
80647;SDS011;70012;0.000;0.000;2023-08-06T15:01:06;1.38;;;0.90;;
80647;SDS011;70012;0.000;0.000;2023-08-06T15:03:37;0.65;;;0.63;;
80647;SDS011;70012;0.000;0.000;2023-08-06T15:06:04;1.17;;;1.08;;
80647;SDS011;70012;0.000;0.000;2023-08-06T15:08:31;1.02;;;0.93;;
80647;SDS011;70012;0.000;0.000;2023-08-06T15:13:28;0.85;;;0.85;;
80647;SDS011;70012;0.000;0.000;2023-08-06T15:15:56;1.23;;;1.00;;
80647;SDS011;70012;0.000;0.000;2023-08-06T15:18:22;0.60;;;0.60;;
80647;SDS011;70012;0.000;0.000;2023-08-06T15:20:49;1.83;;;0.82;;
80647;SDS011;70012;0.000;0.000;2023-08-06T15:23:16;0.85;;;0.85;;
80647;SDS011;70012;0.000;0.000;2023-08-06T15:25:44;1.45;;;0.80;;
80647;SDS011;70012;0.000;0.000;2023-08-06T15:28:10;0.80;;;0.80;;
80647;SDS011;70012;0.000;0.000;2023-08-06T15:33:04;1.23;;;0.90;;
80647;SDS011;70012;0.000;0.000;2023-08-06T15:35:31;1.52;;;0.95;;
80647;SDS011;70012;0.000;0.000;2023-08-06T15:37:57;3.05;;;1.17;;
80647;SDS011;70012;0.000;0.000;2023-08-06T15:40:24;1.08;;;0.88;;
80647;SDS011;70012;0.000;0.000;2023-08-06T15:42:51;1.13;;;1.00;;